Time;durP1;ratioP1;P1;durP2;ratioP2;P2;SDS_P1;SDS_P2;PMS_P1;PMS_P2;Temp;Humidity;BMP_temperature;BMP_pressure;BME280_temperature;BME280_humidity;BME280_pressure;Samples;Min_cycle;Max_cycle;Signal;HPM_P1;HPM_P2
2023/09/06 00:02:07;;;;;;;15.63;13.93;;;;;;;17.75;100.00;102350.69;6091213;23;20172;-73
2023/09/06 00:04:33;;;;;;;13.50;12.13;;;;;;;17.84;100.00;102358.44;6065864;23;20163;-73
2023/09/06 00:06:59;;;;;;;17.07;13.90;;;;;;;18.20;100.00;102419.59;6089948;23;20379;-73
2023/09/06 00:09:25;;;;;;;16.00;14.30;;;;;;;18.06;100.00;102397.06;6089119;23;20758;-73
2023/09/06 00:11:50;;;;;;;15.23;13.73;;;;;;;17.38;100.00;102294.13;6086432;23;20393;-73
2023/09/06 00:14:16;;;;;;;15.10;13.50;;;;;;;18.04;100.00;102396.44;6064948;23;20158;-73
2023/09/06 00:16:46;;;;;;;15.20;13.70;;;;;;;18.00;100.00;102372.63;6091136;23;20185;-73
2023/09/06 00:19:12;;;;;;;14.90;13.40;;;;;;;17.58;100.00;102328.56;6090773;23;20239;-73
2023/09/06 00:21:40;;;;;;;14.70;13.20;;;;;;;18.10;100.00;102394.75;6063608;23;20391;-73
2023/09/06 00:24:06;;;;;;;13.97;12.47;;;;;;;17.94;100.00;102376.19;6084426;23;20452;-73
2023/09/06 00:26:32;;;;;;;14.13;12.73;;;;;;;17.81;100.00;102344.47;6061278;23;20914;-73
2023/09/06 00:28:57;;;;;;;14.97;13.17;;;;;;;18.13;100.00;102374.47;6065107;23;20414;-73
2023/09/06 00:31:23;;;;;;;14.60;13.10;;;;;;;17.94;100.00;102351.78;6066467;23;20598;-73
2023/09/06 00:33:48;;;;;;;15.60;14.00;;;;;;;17.33;100.00;102239.72;6064589;23;20169;-73
2023/09/06 00:36:14;;;;;;;14.10;12.60;;;;;;;17.99;100.00;102349.22;6066940;23;20186;-73
2023/09/06 00:38:39;;;;;;;13.87;12.47;;;;;;;17.84;100.00;102320.44;6066998;23;20190;-73
2023/09/06 00:41:05;;;;;;;15.90;14.20;;;;;;;17.53;100.00;102268.69;6092938;23;20209;-72
2023/09/06 00:43:30;;;;;;;15.57;13.90;;;;;;;17.79;100.00;102278.69;6066571;23;20158;-73
2023/09/06 00:45:56;;;;;;;15.93;14.23;;;;;;;17.54;100.00;102313.78;6094528;23;20146;-72
2023/09/06 00:48:23;;;;;;;15.17;13.57;;;;;;;16.91;100.00;102249.91;6093376;23;20538;-73
2023/09/06 00:50:51;;;;;;;15.97;14.37;;;;;;;17.56;100.00;102361.34;6093990;23;20151;-73
2023/09/06 00:53:18;;;;;;;17.87;15.50;;;;;;;17.49;100.00;102362.38;6093686;23;20834;-73
2023/09/06 00:55:44;;;;;;;15.83;14.23;;;;;;;17.66;100.00;102377.22;6094440;23;20426;-73
2023/09/06 00:58:15;;;;;;;14.67;13.17;;;;;;;17.65;100.00;102374.69;6093596;23;20405;-73
2023/09/06 01:00:44;;;;;;;15.23;13.73;;;;;;;16.90;100.00;102269.09;6068804;23;20367;-73
2023/09/06 01:03:10;;;;;;;15.93;13.80;;;;;;;16.60;100.00;102207.09;6068589;23;20445;-73
2023/09/06 01:05:52;;;;;;;19.33;13.73;;;;;;;17.49;100.00;102360.50;6068316;23;20398;-73
2023/09/06 01:08:24;;;;;;;15.40;13.80;;;;;;;17.47;100.00;102342.75;6093585;23;20217;-73
2023/09/06 01:10:50;;;;;;;16.20;14.50;;;;;;;16.78;100.00;102232.78;6067806;23;20374;-73
2023/09/06 01:13:16;;;;;;;14.50;13.00;;;;;;;17.09;100.00;102276.41;6067661;23;20390;-73
2023/09/06 01:15:44;;;;;;;15.20;13.60;;;;;;;17.43;100.00;102327.97;6066925;23;20481;-73
2023/09/06 01:18:12;;;;;;;19.13;14.50;;;;;;;16.82;100.00;102234.88;6093193;23;20179;-73
2023/09/06 01:20:44;;;;;;;15.73;14.13;;;;;;;17.13;100.00;102249.72;6088441;23;20449;-73
2023/09/06 01:23:33;;;;;;;16.80;14.43;;;;;;;17.65;100.00;102323.13;6066436;23;20387;-73
2023/09/06 01:25:59;;;;;;;14.10;12.70;;;;;;;16.99;100.00;102204.69;6092863;23;20367;-73
2023/09/06 01:28:28;;;;;;;16.40;14.70;;;;;;;16.39;100.00;102153.09;6088072;23;20492;-73
2023/09/06 01:30:55;;;;;;;16.37;13.80;;;;;;;15.52;100.00;102006.72;6092835;23;20151;-73
2023/09/06 01:33:22;;;;;;;16.17;14.10;;;;;;;14.85;100.00;101939.94;6068786;23;20415;-73
2023/09/06 01:35:51;;;;;;;16.20;14.50;;;;;;;15.89;100.00;102107.38;6082446;23;20762;-72
2023/09/06 01:38:17;;;;;;;14.27;12.60;;;;;;;16.10;100.00;102151.59;6091632;23;20450;-72
2023/09/06 01:40:43;;;;;;;14.43;12.80;;;;;;;15.69;100.00;102101.06;6092067;23;20383;-72
2023/09/06 01:43:09;;;;;;;15.10;13.50;;;;;;;16.30;100.00;102166.00;6066743;23;20386;-73
2023/09/06 01:45:39;;;;;;;16.17;13.50;;;;;;;17.19;100.00;102305.00;6092992;23;20437;-72
2023/09/06 01:48:05;;;;;;;15.23;12.53;;;;;;;16.99;100.00;102262.44;6067072;23;20159;-73
2023/09/06 01:50:30;;;;;;;14.27;12.77;;;;;;;17.05;100.00;102277.03;6092598;23;20462;-72
2023/09/06 01:52:55;;;;;;;14.70;12.63;;;;;;;17.31;100.00;102306.88;6066385;23;20393;-72
2023/09/06 01:55:21;;;;;;;13.57;12.20;;;;;;;17.34;100.00;102325.44;6093059;23;20282;-73
2023/09/06 01:57:47;;;;;;;14.37;11.37;;;;;;;17.43;100.00;102333.38;6066661;23;20333;-72
2023/09/06 02:02:46;;;;;;;12.07;10.77;;;;;;;17.10;100.00;102272.66;6102444;23;20143;-72
2023/09/06 02:05:12;;;;;;;11.57;10.33;;;;;;;17.55;100.00;102329.81;6091303;23;20472;-72
2023/09/06 02:07:37;;;;;;;13.27;11.87;;;;;;;17.29;100.00;102327.94;6091859;23;20718;-72
2023/09/06 02:10:03;;;;;;;12.73;11.50;;;;;;;17.17;100.00;102316.88;6065028;23;20213;-72
2023/09/06 02:12:29;;;;;;;14.47;12.03;;;;;;;17.32;100.00;102334.81;6092677;23;20155;-73
2023/09/06 02:14:56;;;;;;;12.80;11.40;;;;;;;17.49;100.00;102343.41;6092107;23;20393;-72
2023/09/06 02:17:23;;;;;;;17.00;11.67;;;;;;;17.24;100.00;102310.63;6066450;23;20233;-73
2023/09/06 02:19:49;;;;;;;14.03;12.60;;;;;;;17.35;100.00;102337.94;6092744;23;20405;-72
2023/09/06 02:22:14;;;;;;;15.13;12.17;;;;;;;17.17;100.00;102346.69;6092887;23;20382;-72
2023/09/06 02:24:39;;;;;;;13.37;11.93;;;;;;;17.00;100.00;102293.09;6093322;23;20285;-72
2023/09/06 02:27:05;;;;;;;13.97;12.47;;;;;;;17.42;100.00;102383.25;6093127;23;20213;-72
2023/09/06 02:29:31;;;;;;;15.47;12.80;;;;;;;17.38;100.00;102380.94;6093249;23;20175;-72
2023/09/06 02:31:56;;;;;;;12.70;11.40;;;;;;;17.40;100.00;102376.16;6092433;23;20231;-72
2023/09/06 02:34:21;;;;;;;13.63;12.33;;;;;;;16.92;100.00;102299.53;6084329;23;20183;-72
2023/09/06 02:36:47;;;;;;;13.93;12.47;;;;;;;17.44;100.00;102370.31;6064489;23;20187;-72
2023/09/06 02:39:13;;;;;;;14.70;12.87;;;;;;;16.22;100.00;102209.50;6064604;23;20720;-73
2023/09/06 02:41:38;;;;;;;14.10;12.20;;;;;;;17.39;100.00;102366.34;6064950;23;20155;-73
2023/09/06 02:44:05;;;;;;;15.63;13.43;;;;;;;17.48;100.00;102382.44;6063657;23;20415;-73
2023/09/06 02:46:33;;;;;;;12.17;10.93;;;;;;;17.44;100.00;102389.28;6064113;23;20486;-72
2023/09/06 02:49:01;;;;;;;15.50;12.43;;;;;;;17.49;100.00;102389.50;6063250;23;20494;-72
2023/09/06 02:51:29;;;;;;;13.60;12.13;;;;;;;17.34;100.00;102390.53;6059091;23;20688;-72
2023/09/06 02:53:56;;;;;;;12.80;11.50;;;;;;;16.98;100.00;102331.25;6063369;23;20446;-72
2023/09/06 02:56:23;;;;;;;11.97;10.60;;;;;;;16.93;100.00;102301.22;6064291;23;20886;-72
2023/09/06 02:58:48;;;;;;;13.07;10.90;;;;;;;17.40;100.00;102394.31;6063842;23;21004;-73
2023/09/06 03:01:19;;;;;;;18.33;13.87;;;;;;;17.34;100.00;102385.13;6064356;23;20381;-72
2023/09/06 03:03:47;;;;;;;13.07;11.70;;;;;;;17.31;100.00;102366.53;6064187;23;20135;-72
2023/09/06 03:06:17;;;;;;;13.20;11.57;;;;;;;16.95;100.00;102331.63;6063667;23;20452;-72
2023/09/06 03:08:46;;;;;;;12.27;10.67;;;;;;;17.27;100.00;102386.13;6063905;23;20403;-72
2023/09/06 03:11:14;;;;;;;15.03;11.30;;;;;;;16.58;100.00;102271.50;6064257;23;20376;-73
2023/09/06 03:13:41;;;;;;;12.83;11.53;;;;;;;17.24;100.00;102391.97;6063608;23;20380;-72
2023/09/06 03:16:07;;;;;;;12.40;11.03;;;;;;;17.17;100.00;102373.81;6062582;23;20431;-72
2023/09/06 03:18:33;;;;;;;13.33;12.00;;;;;;;16.90;100.00;102345.81;6038757;23;20738;-73
2023/09/06 03:21:04;;;;;;;11.87;10.60;;;;;;;16.60;100.00;102295.66;6063844;23;20155;-72
2023/09/06 03:23:32;;;;;;;11.90;10.60;;;;;;;17.11;100.00;102382.78;6062687;23;20142;-72
2023/09/06 03:25:58;;;;;;;12.07;10.63;;;;;;;17.01;100.00;102385.06;6063557;23;20672;-72
2023/09/06 03:28:28;;;;;;;14.60;11.73;;;;;;;16.99;100.00;102389.84;6063050;23;20450;-72
2023/09/06 03:31:03;;;;;;;12.00;10.70;;;;;;;16.65;100.00;102304.84;6061241;23;20438;-72
2023/09/06 03:33:29;;;;;;;13.10;11.27;;;;;;;16.89;100.00;102355.00;6063725;23;20368;-72
2023/09/06 03:35:55;;;;;;;12.60;11.10;;;;;;;16.33;100.00;102281.19;6063020;23;20434;-72
2023/09/06 03:38:25;;;;;;;11.47;10.27;;;;;;;16.96;100.00;102392.13;6063979;23;20183;-72
2023/09/06 03:40:50;;;;;;;12.67;10.83;;;;;;;16.61;100.00;102322.56;6062777;23;20849;-72
2023/09/06 03:43:17;;;;;;;13.00;10.97;;;;;;;16.30;100.00;102287.00;6063990;23;20387;-72
2023/09/06 03:45:51;;;;;;;12.37;9.70;;;;;;;16.82;100.00;102364.97;6064106;23;20239;-72
2023/09/06 03:48:22;;;;;;;13.30;10.80;;;;;;;17.02;100.00;102396.72;6061890;23;20399;-72
2023/09/06 03:50:53;;;;;;;10.93;9.70;;;;;;;17.11;100.00;102395.50;6059717;23;20486;-72
2023/09/06 03:53:18;;;;;;;11.03;9.43;;;;;;;16.31;100.00;102305.75;6035838;23;20643;-72
2023/09/06 03:55:46;;;;;;;12.07;9.13;;;;;;;16.27;100.00;102275.53;6060321;23;20413;-72
2023/09/06 03:58:12;;;;;;;12.00;10.80;;;;;;;16.66;100.00;102343.59;6061951;23;20622;-72
2023/09/06 04:00:41;;;;;;;10.93;9.13;;;;;;;16.91;100.00;102393.56;6061812;23;20391;-72
2023/09/06 04:03:07;;;;;;;11.30;9.63;;;;;;;16.22;100.00;102306.97;6062524;23;20158;-72
2023/09/06 04:05:34;;;;;;;8.70;7.80;;;;;;;16.90;100.00;102400.03;6038135;23;20383;-72
2023/09/06 04:08:07;;;;;;;9.37;8.37;;;;;;;16.32;100.00;102312.84;6063027;23;20383;-72
2023/09/06 04:10:40;;;;;;;11.73;8.70;;;;;;;16.80;100.00;102390.59;6063989;23;20422;-72
2023/09/06 04:13:07;;;;;;;11.80;9.37;;;;;;;16.88;100.00;102393.97;6063522;23;20377;-72
2023/09/06 04:15:36;;;;;;;9.00;8.00;;;;;;;16.78;100.00;102374.56;6064366;23;20427;-72
2023/09/06 04:18:03;;;;;;;10.13;8.50;;;;;;;16.09;100.00;102272.56;6065266;23;20862;-72
2023/09/06 04:20:32;;;;;;;9.40;8.07;;;;;;;16.63;100.00;102350.25;6064833;23;20913;-72
2023/09/06 04:23:04;;;;;;;9.63;8.50;;;;;;;16.11;100.00;102292.09;6065252;23;20855;-72
2023/09/06 04:25:33;;;;;;;9.10;7.60;;;;;;;16.63;100.00;102366.50;6065277;23;20371;-72
2023/09/06 04:28:01;;;;;;;9.77;8.77;;;;;;;16.97;100.00;102401.91;6040512;23;20751;-72
2023/09/06 04:30:28;;;;;;;9.60;8.00;;;;;;;16.48;100.00;102342.28;6064823;23;20379;-72
2023/09/06 04:32:59;;;;;;;11.93;8.47;;;;;;;15.14;100.00;102182.88;6063556;23;20402;-72
2023/09/06 04:35:38;;;;;;;10.80;9.10;;;;;;;16.78;100.00;102398.06;6064628;23;20474;-72
2023/09/06 04:38:04;;;;;;;9.00;7.90;;;;;;;16.75;100.00;102395.75;6063549;23;20429;-72
2023/09/06 04:40:29;;;;;;;8.63;7.20;;;;;;;16.75;100.00;102399.31;6063586;23;20379;-72
2023/09/06 04:42:55;;;;;;;9.50;7.70;;;;;;;16.65;100.00;102393.41;6063413;23;20162;-72
2023/09/06 04:45:21;;;;;;;8.67;7.10;;;;;;;16.72;100.00;102397.84;6064259;23;20159;-72
2023/09/06 04:47:46;;;;;;;9.03;7.20;;;;;;;16.62;100.00;102396.53;6064651;23;20407;-72
2023/09/06 04:50:12;;;;;;;7.40;6.07;;;;;;;16.43;100.00;102336.66;6063272;23;20219;-72
2023/09/06 04:52:50;;;;;;;7.03;6.27;;;;;;;16.81;100.00;102395.81;6063590;23;20164;-72
2023/09/06 04:55:19;;;;;;;8.73;6.30;;;;;;;16.62;100.00;102397.34;6063895;23;20540;-72
2023/09/06 04:57:46;;;;;;;7.23;6.37;;;;;;;16.64;100.00;102397.16;6063081;23;20423;-72
2023/09/06 05:00:30;;;;;;;7.63;6.50;;;;;;;15.75;100.00;102238.22;6063772;23;20727;-72
2023/09/06 05:02:57;;;;;;;7.70;5.90;;;;;;;16.64;100.00;102413.44;6038366;23;20384;-72
2023/09/06 05:05:23;;;;;;;7.40;6.30;;;;;;;16.63;100.00;102400.91;6062943;23;20446;-72
2023/09/06 05:07:49;;;;;;;7.83;5.47;;;;;;;16.12;100.00;102320.03;6057491;23;20383;-72
2023/09/06 05:10:15;;;;;;;9.00;6.40;;;;;;;16.65;100.00;102396.13;6062991;23;20384;-72
2023/09/06 05:12:40;;;;;;;7.37;5.80;;;;;;;16.48;100.00;102373.94;6062403;23;20641;-72
2023/09/06 05:15:07;;;;;;;7.77;5.97;;;;;;;16.58;100.00;102381.72;6060349;23;20151;-73
2023/09/06 05:17:33;;;;;;;6.10;5.00;;;;;;;16.60;100.00;102396.72;6062995;23;20262;-74
2023/09/06 05:20:27;;;;;;;7.50;5.57;;;;;;;16.73;100.00;102390.53;6064128;23;20482;-72
2023/09/06 05:22:57;;;;;;;6.50;5.20;;;;;;;16.57;100.00;102397.13;6060390;23;20216;-72
2023/09/06 05:25:23;;;;;;;5.90;5.00;;;;;;;16.79;100.00;102408.72;6063411;23;20811;-72
2023/09/06 05:27:49;;;;;;;6.87;5.30;;;;;;;16.57;100.00;102409.81;6036650;23;20726;-72
2023/09/06 05:30:15;;;;;;;6.80;5.03;;;;;;;16.93;100.00;102410.44;6063187;23;20379;-72
2023/09/06 05:32:40;;;;;;;6.50;4.77;;;;;;;16.72;100.00;102392.41;6061920;23;20151;-72
2023/09/06 05:35:06;;;;;;;6.87;4.57;;;;;;;16.41;100.00;102346.00;6064407;23;20182;-72
2023/09/06 05:37:32;;;;;;;6.77;5.17;;;;;;;16.78;100.00;102417.91;6038680;23;20262;-72
2023/09/06 05:39:57;;;;;;;5.83;4.83;;;;;;;16.50;100.00;102378.13;6039343;23;20203;-72
2023/09/06 05:42:23;;;;;;;5.73;4.50;;;;;;;16.56;100.00;102375.66;6064565;23;20215;-72
2023/09/06 05:44:48;;;;;;;7.20;4.90;;;;;;;16.89;100.00;102436.31;6039268;23;20232;-72
2023/09/06 05:47:13;;;;;;;4.70;3.90;;;;;;;16.34;100.00;102356.78;6064471;23;20658;-72
2023/09/06 05:49:40;;;;;;;5.30;4.20;;;;;;;16.91;100.00;102466.72;6061869;23;20175;-72
2023/09/06 05:52:06;;;;;;;5.60;4.57;;;;;;;16.96;100.00;102474.25;6064010;23;20155;-72
2023/09/06 05:54:31;;;;;;;6.27;3.90;;;;;;;17.05;100.00;102472.22;6058915;23;20839;-72
2023/09/06 05:56:57;;;;;;;5.73;4.70;;;;;;;17.09;100.00;102493.28;6036933;23;20191;-72
2023/09/06 05:59:23;;;;;;;6.50;3.87;;;;;;;16.18;100.00;102325.47;6063909;23;20717;-72
2023/09/06 06:01:49;;;;;;;5.70;4.23;;;;;;;17.24;100.00;102495.00;6036955;23;20178;-72
2023/09/06 06:04:15;;;;;;;5.00;4.00;;;;;;;16.94;100.00;102477.16;6061700;23;20387;-72
2023/09/06 06:06:41;;;;;;;5.40;4.37;;;;;;;16.78;100.00;102455.84;6063681;23;20376;-72
2023/09/06 06:09:11;;;;;;;6.00;3.90;;;;;;;17.08;100.00;102499.75;6037929;23;20270;-72
2023/09/06 06:11:40;;;;;;;5.07;3.70;;;;;;;17.19;100.00;102517.31;6063935;23;20703;-73
2023/09/06 06:14:06;;;;;;;4.70;3.70;;;;;;;17.01;100.00;102484.47;6063415;23;20386;-73
2023/09/06 06:16:31;;;;;;;5.00;3.17;;;;;;;17.24;100.00;102522.13;6038368;23;20442;-73
2023/09/06 06:18:57;;;;;;;5.20;3.67;;;;;;;17.46;100.00;102553.53;6037062;23;20470;-72
2023/09/06 06:21:24;;;;;;;5.50;3.73;;;;;;;17.19;100.00;102513.78;6063986;23;20495;-72
2023/09/06 06:23:50;;;;;;;5.57;3.87;;;;;;;17.38;100.00;102518.44;6062598;23;20924;-72
2023/09/06 06:26:19;;;;;;;5.03;3.70;;;;;;;17.34;100.00;102507.16;6063779;23;20406;-72
2023/09/06 06:28:44;;;;;;;5.80;3.50;;;;;;;17.35;100.00;102494.44;6061712;23;20411;-73
2023/09/06 06:31:10;;;;;;;4.60;3.30;;;;;;;17.37;100.00;102482.34;6063071;23;20472;-72
2023/09/06 06:33:35;;;;;;;4.70;3.70;;;;;;;18.02;100.00;102561.44;6063562;23;20155;-73
2023/09/06 06:36:01;;;;;;;6.23;3.47;;;;;;;17.96;100.00;102542.41;6063784;23;20560;-72
2023/09/06 06:38:26;;;;;;;4.33;3.20;;;;;;;18.00;100.00;102552.66;6062356;23;20186;-72
2023/09/06 06:40:52;;;;;;;4.73;3.63;;;;;;;17.83;100.00;102522.34;6062779;23;20777;-72
2023/09/06 06:43:17;;;;;;;4.80;3.13;;;;;;;18.13;100.00;102535.53;6063574;23;20155;-72
2023/09/06 06:45:47;;;;;;;5.50;2.80;;;;;;;18.13;100.00;102508.38;6064301;23;20163;-73
2023/09/06 06:48:12;;;;;;;4.83;3.30;;;;;;;17.68;100.00;102442.13;6063254;23;20565;-72
2023/09/06 06:50:38;;;;;;;4.93;3.00;;;;;;;18.29;100.00;102537.00;6063771;23;20470;-72
2023/09/06 06:53:03;;;;;;;4.47;2.77;;;;;;;18.19;100.00;102518.41;6064649;23;20152;-73
2023/09/06 06:55:29;;;;;;;5.37;3.50;;;;;;;18.21;100.00;102493.75;6063311;23;20159;-72
2023/09/06 06:57:54;;;;;;;4.77;3.57;;;;;;;18.20;100.00;102457.63;6062487;23;20645;-72
2023/09/06 07:00:20;;;;;;;5.90;2.87;;;;;;;18.63;100.00;102530.50;6062495;23;20155;-73
2023/09/06 07:02:45;;;;;;;4.53;3.13;;;;;;;18.67;100.00;102525.47;6062364;23;20202;-72
2023/09/06 07:05:12;;;;;;;5.17;2.73;;;;;;;18.68;100.00;102517.09;6062951;23;20163;-72
2023/09/06 07:07:37;;;;;;;4.40;2.67;;;;;;;18.35;100.00;102453.84;6062332;23;20155;-72
2023/09/06 07:10:03;;;;;;;4.50;2.97;;;;;;;18.17;100.00;102439.03;6061622;23;20881;-73
2023/09/06 07:12:29;;;;;;;4.23;2.87;;;;;;;18.22;100.00;102474.53;6063377;23;20202;-72
2023/09/06 07:14:55;;;;;;;4.37;2.73;;;;;;;18.28;100.00;102441.13;6059129;23;20234;-72
2023/09/06 07:17:21;;;;;;;4.07;3.10;;;;;;;18.00;100.00;102368.03;6059745;23;20582;-72
2023/09/06 07:19:46;;;;;;;4.63;2.97;;;;;;;18.70;100.00;102471.53;6062453;23;20407;-73
2023/09/06 07:22:11;;;;;;;4.07;2.50;;;;;;;18.91;100.00;102494.91;6063164;23;20159;-73
2023/09/06 07:24:37;;;;;;;4.70;3.30;;;;;;;19.01;100.00;102459.13;6063183;23;20783;-72
2023/09/06 07:27:03;;;;;;;8.10;2.30;;;;;;;19.21;100.00;102510.72;6063010;23;20148;-73
2023/09/06 07:29:28;;;;;;;3.90;2.33;;;;;;;19.35;100.00;102500.59;6061420;23;20183;-73
2023/09/06 07:31:53;;;;;;;4.10;2.93;;;;;;;19.45;100.00;102491.97;6062747;23;20152;-73
2023/09/06 07:34:20;;;;;;;3.70;2.57;;;;;;;19.17;100.00;102420.53;6062865;23;20174;-74
2023/09/06 07:36:45;;;;;;;3.90;2.50;;;;;;;19.62;100.00;102453.13;6062687;23;20217;-72
2023/09/06 07:39:11;;;;;;;5.03;2.73;;;;;;;19.70;100.00;102435.72;6061660;23;20404;-72
2023/09/06 07:41:36;;;;;;;4.60;3.40;;;;;;;19.48;100.00;102388.13;6062730;23;20151;-73
2023/09/06 07:44:02;;;;;;;4.33;2.20;;;;;;;19.50;100.00;102380.56;6062572;23;20159;-73
2023/09/06 07:46:29;;;;;;;3.90;2.40;;;;;;;19.97;100.00;102449.97;6062018;23;20638;-73
2023/09/06 07:48:55;;;;;;;4.73;2.30;;;;;;;19.55;100.00;102389.72;6060701;23;20190;-73
2023/09/06 07:51:20;;;;;;;3.60;2.57;;;;;;;19.65;100.00;102411.06;6063484;23;20905;-72
2023/09/06 07:53:45;;;;;;;4.03;2.60;;;;;;;20.00;100.00;102467.75;6061218;23;20155;-73
2023/09/06 07:56:11;;;;;;;3.63;2.30;;;;;;;19.68;100.00;102390.72;6061143;23;20186;-72
2023/09/06 07:58:37;;;;;;;3.77;2.60;;;;;;;20.01;100.00;102431.28;6061404;23;20262;-72
2023/09/06 08:01:04;;;;;;;4.30;2.83;;;;;;;20.28;100.00;102440.88;6062344;23;20225;-72
2023/09/06 08:03:29;;;;;;;4.00;2.77;;;;;;;19.93;100.00;102348.00;6061642;23;20234;-72
2023/09/06 08:05:54;;;;;;;4.20;2.80;;;;;;;20.39;100.00;102406.56;6058355;23;20510;-73
2023/09/06 08:08:20;;;;;;;3.93;2.67;;;;;;;20.56;100.00;102425.94;6061747;23;20175;-73
2023/09/06 08:10:46;;;;;;;4.43;2.40;;;;;;;19.89;100.00;102322.25;6061005;23;20155;-72
2023/09/06 08:13:11;;;;;;;5.47;2.17;;;;;;;20.63;100.00;102440.31;6063205;23;20165;-72
2023/09/06 08:15:37;;;;;;;4.00;2.57;;;;;;;20.24;100.00;102355.19;6062481;23;20383;-72
2023/09/06 08:18:05;;;;;;;3.93;2.40;;;;;;;20.77;100.00;102435.53;6061939;23;20230;-72
2023/09/06 08:20:33;;;;;;;4.93;3.43;;;;;;;20.86;100.00;102430.59;6063757;23;20229;-72
2023/09/06 08:22:59;;;;;;;4.50;2.20;;;;;;;20.36;100.00;102319.84;6061945;23;20459;-72
2023/09/06 08:25:24;;;;;;;3.00;1.90;;;;;;;20.70;100.00;102353.00;6060839;23;20387;-72
2023/09/06 08:27:53;;;;;;;5.10;2.80;;;;;;;21.12;100.00;102405.72;6060177;23;20222;-72
2023/09/06 08:30:20;;;;;;;3.67;2.33;;;;;;;21.22;100.00;102419.63;6061744;23;20294;-73
2023/09/06 08:32:51;;;;;;;3.83;2.40;;;;;;;21.43;100.00;102418.28;6060724;23;20483;-72
2023/09/06 08:35:17;;;;;;;3.70;2.33;;;;;;;21.42;100.00;102366.69;6059399;23;21055;-72
2023/09/06 08:37:45;;;;;;;4.20;2.57;;;;;;;20.83;100.00;102230.13;6061481;23;20497;-73
2023/09/06 08:40:11;;;;;;;5.50;2.30;;;;;;;21.52;100.00;102312.31;6036549;23;20489;-72
2023/09/06 08:42:38;;;;;;;3.90;2.90;;;;;;;21.86;100.00;102297.00;6063773;23;20420;-72
2023/09/06 08:45:09;;;;;;;3.60;2.50;;;;;;;21.67;100.00;102309.97;6062976;23;20238;-72
2023/09/06 08:47:41;;;;;;;3.60;2.03;;;;;;;21.64;100.00;102279.59;6062594;23;20364;-73
2023/09/06 08:50:12;;;;;;;2.77;1.50;;;;;;;21.79;100.00;102260.81;6061928;23;20414;-72
2023/09/06 08:52:41;;;;;;;4.00;1.90;;;;;;;21.82;100.00;102259.50;6063948;23;20391;-72
2023/09/06 08:55:10;;;;;;;4.00;2.00;;;;;;;21.93;100.00;102258.66;6063190;23;20379;-72
2023/09/06 08:57:36;;;;;;;3.00;1.63;;;;;;;21.91;100.00;102236.19;6063142;23;20423;-73
2023/09/06 09:00:03;;;;;;;4.30;2.00;;;;;;;21.99;100.00;102166.72;6061268;23;20850;-72
2023/09/06 09:02:28;;;;;;;3.43;1.53;;;;;;;22.27;100.00;102243.25;6063306;23;20419;-72
2023/09/06 09:04:54;;;;;;;4.00;1.60;;;;;;;22.20;100.00;102228.06;6064362;23;20414;-73
2023/09/06 09:07:19;;;;;;;3.50;1.63;;;;;;;22.14;100.00;102185.31;6064456;23;20630;-72
2023/09/06 09:10:08;;;;;;;3.10;1.43;;;;;;;22.29;100.00;102221.97;6064180;23;20625;-72
2023/09/06 09:12:35;;;;;;;3.60;1.70;;;;;;;22.32;100.00;102223.38;6063823;23;20247;-73
2023/09/06 09:15:03;;;;;;;4.77;1.97;;;;;;;22.37;100.00;102226.22;6063620;23;20387;-72
2023/09/06 09:17:30;;;;;;;3.23;1.50;;;;;;;22.63;100.00;102233.00;6061194;23;20427;-73
2023/09/06 09:19:57;;;;;;;3.57;2.00;;;;;;;22.58;100.00;102172.75;6062831;23;20501;-72
2023/09/06 09:22:24;;;;;;;3.23;1.57;;;;;;;22.56;100.00;102222.22;6062379;23;20390;-73
2023/09/06 09:24:57;;;;;;;4.10;1.90;;;;;;;22.39;100.00;102176.75;6063436;23;20384;-73
2023/09/06 09:27:23;;;;;;;3.53;1.50;;;;;;;22.76;100.00;102188.91;6060725;23;20388;-73
2023/09/06 09:29:49;;;;;;;4.40;1.70;;;;;;;23.23;100.00;102179.56;6037474;23;20909;-73
2023/09/06 09:32:15;;;;;;;3.73;1.90;;;;;;;22.38;100.00;102043.91;6061759;23;20380;-74
2023/09/06 09:34:41;;;;;;;4.60;1.80;;;;;;;22.82;100.00;102157.00;6063118;23;20245;-72
2023/09/06 09:37:09;;;;;;;3.03;1.27;;;;;;;23.07;100.00;102211.34;6062638;23;20430;-74
2023/09/06 09:39:35;;;;;;;3.43;1.60;;;;;;;22.96;100.00;102152.06;6063635;23;20404;-73
2023/09/06 09:42:01;;;;;;;2.87;1.40;;;;;;;23.27;100.00;102199.88;6062375;23;20401;-74
2023/09/06 09:44:26;;;;;;;4.50;2.20;;;;;;;23.39;100.00;102194.28;6063173;23;20622;-74
2023/09/06 09:46:56;;;;;;;4.10;1.70;;;;;;;23.39;100.00;102181.44;6037428;23;20230;-74
2023/09/06 09:49:22;;;;;;;2.93;1.33;;;;;;;23.10;100.00;102142.41;6061797;23;20511;-74
2023/09/06 09:51:50;;;;;;;3.77;1.90;;;;;;;23.73;100.00;102161.38;6037118;23;20387;-74
2023/09/06 09:54:19;;;;;;;3.10;1.33;;;;;;;23.97;100.00;102129.84;6039217;23;20167;-74
2023/09/06 09:56:58;;;;;;;3.30;1.53;;;;;;;23.85;100.00;102077.13;6064941;23;20470;-74
2023/09/06 09:59:26;;;;;;;3.20;1.43;;;;;;;23.98;100.00;102123.28;6063637;23;20395;-72
2023/09/06 10:01:52;;;;;;;3.30;1.43;;;;;;;23.84;100.00;102120.16;6062897;23;20396;-72
2023/09/06 10:04:19;;;;;;;2.60;1.13;;;;;;;23.85;100.00;102116.31;6061656;23;20439;-72
2023/09/06 10:06:46;;;;;;;2.87;1.30;;;;;;;23.46;100.00;102038.84;6059975;23;20686;-72
2023/09/06 10:09:14;;;;;;;3.77;2.00;;;;;;;24.29;100.00;102126.34;6062604;23;20762;-72
2023/09/06 10:11:41;;;;;;;3.10;1.50;;;;;;;24.11;100.00;102116.56;6063810;23;20439;-72
2023/09/06 10:14:08;;;;;;;3.20;1.40;;;;;;;24.17;100.00;102120.19;6062536;23;20438;-72
2023/09/06 10:16:33;;;;;;;3.10;1.40;;;;;;;24.18;100.00;102088.94;6062051;23;20892;-72
2023/09/06 10:18:59;;;;;;;3.80;1.20;;;;;;;24.35;100.00;102104.19;6063103;23;20462;-72
2023/09/06 10:21:27;;;;;;;2.83;1.27;;;;;;;24.47;100.00;102109.53;6061799;23;20254;-72
2023/09/06 10:23:52;;;;;;;3.30;1.43;;;;;;;24.31;100.00;102110.47;6063599;23;20238;-72
2023/09/06 10:26:30;;;;;;;3.00;1.37;;;;;;;24.63;100.00;102104.19;6062227;23;20411;-71
2023/09/06 10:28:57;;;;;;;3.23;1.37;;;;;;;24.69;100.00;102079.25;6062261;23;20341;-74
2023/09/06 10:31:50;;;;;;;3.03;1.27;;;;;;;24.69;100.00;101976.94;6063721;23;20388;-74
2023/09/06 10:34:16;;;;;;;2.80;1.30;;;;;;;24.68;100.00;102082.28;6036539;23;20403;-74
2023/09/06 10:36:56;;;;;;;3.20;1.57;;;;;;;24.72;100.00;102081.47;6062254;23;20454;-72
2023/09/06 10:39:25;;;;;;;2.10;0.90;;;;;;;24.82;100.00;102083.44;6061002;23;20178;-72
2023/09/06 10:42:15;;;;;;;2.90;1.30;;;;;;;24.54;100.00;102038.84;6064463;23;20438;-72
2023/09/06 10:44:56;;;;;;;3.10;1.60;;;;;;;24.79;100.00;102097.69;6058839;23;20368;-72
2023/09/06 10:47:24;;;;;;;2.77;1.20;;;;;;;24.80;100.00;102088.41;6063953;23;20438;-72
2023/09/06 10:50:14;;;;;;;3.60;1.60;;;;;;;25.12;100.00;102090.22;6062771;23;20403;-72
2023/09/06 10:52:40;;;;;;;3.80;1.30;;;;;;;24.92;100.00;102093.69;6062139;23;21090;-72
2023/09/06 10:55:14;;;;;;;2.43;1.17;;;;;;;25.03;100.00;102087.16;6062017;23;20380;-71
2023/09/06 10:57:54;;;;;;;3.50;1.30;;;;;;;25.02;100.00;102096.47;6062246;23;20752;-72
2023/09/06 11:00:27;;;;;;;2.47;1.13;;;;;;;25.16;100.00;102083.13;6062418;23;20422;-72
2023/09/06 11:03:17;;;;;;;3.53;1.53;;;;;;;25.19;100.00;102077.94;6062496;23;20451;-72
2023/09/06 11:05:46;;;;;;;3.00;1.30;;;;;;;25.30;100.00;102083.47;6048127;23;20407;-71
2023/09/06 11:08:22;;;;;;;3.50;1.10;;;;;;;25.37;100.00;102073.91;6060264;23;21293;-72
2023/09/06 11:10:48;;;;;;;2.50;1.10;;;;;;;25.07;100.00;102041.59;6062272;23;20371;-71
2023/09/06 11:13:18;;;;;;;3.50;1.60;;;;;;;25.41;100.00;102046.72;6063211;23;20388;-72
2023/09/06 11:15:43;;;;;;;2.57;1.20;;;;;;;25.47;100.00;102060.19;6061841;23;20155;-72
2023/09/06 11:18:09;;;;;;;2.57;1.00;;;;;;;25.10;100.00;101999.06;6060473;23;20441;-72